Portada
METAR-TAF:

METAR-TAF

Aeroports :

Concord, Nova Hampshire, Estats Units d'Amèrica

latitud: 43-11-43N, longitud: 071-30-04W, altitud: 105 m

Observació

L'informe es va fer fa 21 minuts, a les 22:51 UTC
Vent 15 kt del Oest amb ràfegues de 25 kt
Temperatura 5°C
Humitat 60%
Pressió 1002 hPa
Visibilitat: 16.1 km
Cel ennuvolat a una alçada de 6000 ft

METAR: KCON 222251Z AUTO 27015G25KT 10SM BKN060 05/M02 A2959 RMK AO2 SLP022 T00501022

Hora: 18:12 (23:12 UTC)

Pronòstic

L'informe es va fer fa 1 hora i 17 minuts, a les 21:55 UTC
Pronòstic vàlid del 22 a les 22 UTC al 23 a les 18 UTC
Vent 6 kt del Oest/Nord-Oest
Visibilitat: 10 km
Cel ennuvolat a una alçada de 4500 ft
A partir de les 23 a les 0000 UTC
Vent 13 kt del Oest/Nord-Oest amb ràfegues de 25 kt
Visibilitat: 10 km
Núvols disperses a una alçada de 3500 ft
A partir de les 23 a les 1100 UTC
Vent 8 kt del Oest
Visibilitat: 10 km
Cel clar

TAF: KCON 222155Z 2222/2318 30006KT P6SM BKN045 FM230000 30013G25KT P6SM SCT035 FM231100 27008KT P6SM SKC

Observacions i pronòstics meteorològics de més de 4000 aeroports (METAR i TAF).

Les estacions disponibles són els punts grocs i vermells al mapa.

Posi el ratolí al punt desitjat per veure el nom de l'estació.

Feu clic per veure les observacions i els pronòstics meteorològics.

Per canviar el mapa: feu clic els botons verds amb una creu de color negre per apropar; al botó verd amb un guió per allunyar la imatge; o en les fletxes verdes per a mapes adjacents.


METAR-TAF: